sensor_id;sensor_type;location;lat;lon;timestamp;P1;durP1;ratioP1;P2;durP2;ratioP2
28335;SDS011;15592;53.656;7.276;2024-03-23T00:53:36;19.63;;;4.38;;
28335;SDS011;15592;53.656;7.276;2024-03-23T00:56:02;19.48;;;4.78;;
28335;SDS011;15592;53.656;7.276;2024-03-23T00:58:28;25.40;;;4.75;;
28335;SDS011;15592;53.656;7.276;2024-03-23T01:00:54;18.30;;;4.65;;
28335;SDS011;15592;53.656;7.276;2024-03-23T01:03:20;23.30;;;4.45;;
28335;SDS011;15592;53.656;7.276;2024-03-23T01:05:45;24.58;;;5.25;;
28335;SDS011;15592;53.656;7.276;2024-03-23T01:08:11;18.95;;;3.72;;
28335;SDS011;15592;53.656;7.276;2024-03-23T01:10:36;22.30;;;4.25;;
28335;SDS011;15592;53.656;7.276;2024-03-23T01:13:02;25.50;;;5.05;;
28335;SDS011;15592;53.656;7.276;2024-03-23T01:15:28;23.60;;;3.97;;
28335;SDS011;15592;53.656;7.276;2024-03-23T01:17:53;19.70;;;3.97;;
28335;SDS011;15592;53.656;7.276;2024-03-23T01:20:19;17.17;;;4.25;;
28335;SDS011;15592;53.656;7.276;2024-03-23T01:22:44;18.60;;;5.07;;
28335;SDS011;15592;53.656;7.276;2024-03-23T01:25:10;21.55;;;4.43;;
28335;SDS011;15592;53.656;7.276;2024-03-23T01:27:35;15.20;;;3.88;;
28335;SDS011;15592;53.656;7.276;2024-03-23T01:30:01;18.33;;;4.30;;
28335;SDS011;15592;53.656;7.276;2024-03-23T01:32:27;16.63;;;3.67;;
28335;SDS011;15592;53.656;7.276;2024-03-23T01:34:52;16.85;;;4.05;;
28335;SDS011;15592;53.656;7.276;2024-03-23T01:37:18;16.00;;;4.25;;
28335;SDS011;15592;53.656;7.276;2024-03-23T01:39:43;23.30;;;4.50;;
28335;SDS011;15592;53.656;7.276;2024-03-23T01:42:09;17.33;;;4.30;;
28335;SDS011;15592;53.656;7.276;2024-03-23T01:44:35;23.02;;;4.38;;
28335;SDS011;15592;53.656;7.276;2024-03-23T01:47:01;28.40;;;5.10;;
28335;SDS011;15592;53.656;7.276;2024-03-23T01:49:26;22.73;;;4.90;;
28335;SDS011;15592;53.656;7.276;2024-03-23T01:51:52;15.90;;;4.40;;
28335;SDS011;15592;53.656;7.276;2024-03-23T01:54:18;18.10;;;5.25;;
28335;SDS011;15592;53.656;7.276;2024-03-23T01:56:44;20.90;;;4.10;;
28335;SDS011;15592;53.656;7.276;2024-03-23T01:59:10;19.45;;;5.22;;
28335;SDS011;15592;53.656;7.276;2024-03-23T02:01:36;18.25;;;4.53;;
28335;SDS011;15592;53.656;7.276;2024-03-23T02:04:01;12.55;;;4.50;;
28335;SDS011;15592;53.656;7.276;2024-03-23T02:06:27;17.98;;;4.60;;
28335;SDS011;15592;53.656;7.276;2024-03-23T02:08:53;17.10;;;4.30;;
28335;SDS011;15592;53.656;7.276;2024-03-23T02:11:19;20.70;;;4.93;;
28335;SDS011;15592;53.656;7.276;2024-03-23T02:13:45;20.05;;;5.57;;
28335;SDS011;15592;53.656;7.276;2024-03-23T02:16:11;18.27;;;4.88;;
28335;SDS011;15592;53.656;7.276;2024-03-23T02:18:38;18.30;;;4.85;;
28335;SDS011;15592;53.656;7.276;2024-03-23T02:21:04;22.98;;;4.80;;
28335;SDS011;15592;53.656;7.276;2024-03-23T02:23:30;28.60;;;5.88;;
28335;SDS011;15592;53.656;7.276;2024-03-23T02:25:55;25.58;;;5.50;;
28335;SDS011;15592;53.656;7.276;2024-03-23T02:28:21;30.30;;;6.20;;
28335;SDS011;15592;53.656;7.276;2024-03-23T02:30:48;38.17;;;6.45;;
28335;SDS011;15592;53.656;7.276;2024-03-23T02:33:14;34.42;;;6.38;;
28335;SDS011;15592;53.656;7.276;2024-03-23T02:35:40;31.20;;;6.13;;
28335;SDS011;15592;53.656;7.276;2024-03-23T02:38:06;27.58;;;5.88;;
28335;SDS011;15592;53.656;7.276;2024-03-23T02:40:32;29.70;;;6.25;;
28335;SDS011;15592;53.656;7.276;2024-03-23T02:42:58;34.55;;;7.60;;
28335;SDS011;15592;53.656;7.276;2024-03-23T02:45:23;34.90;;;5.72;;
28335;SDS011;15592;53.656;7.276;2024-03-23T02:47:49;30.52;;;6.47;;
28335;SDS011;15592;53.656;7.276;2024-03-23T02:50:18;32.20;;;6.67;;
28335;SDS011;15592;53.656;7.276;2024-03-23T02:52:44;28.15;;;5.95;;
28335;SDS011;15592;53.656;7.276;2024-03-23T02:55:10;26.15;;;6.07;;
28335;SDS011;15592;53.656;7.276;2024-03-23T02:57:35;19.70;;;5.55;;
28335;SDS011;15592;53.656;7.276;2024-03-23T03:00:01;22.95;;;6.13;;
28335;SDS011;15592;53.656;7.276;2024-03-23T03:02:27;25.58;;;6.57;;
28335;SDS011;15592;53.656;7.276;2024-03-23T03:04:52;21.80;;;5.28;;
28335;SDS011;15592;53.656;7.276;2024-03-23T03:07:18;23.63;;;5.50;;
28335;SDS011;15592;53.656;7.276;2024-03-23T03:09:44;22.27;;;5.32;;
28335;SDS011;15592;53.656;7.276;2024-03-23T03:12:09;26.65;;;6.28;;
28335;SDS011;15592;53.656;7.276;2024-03-23T03:14:35;19.92;;;5.68;;
28335;SDS011;15592;53.656;7.276;2024-03-23T03:17:00;27.00;;;5.93;;
28335;SDS011;15592;53.656;7.276;2024-03-23T03:19:26;25.85;;;5.70;;
28335;SDS011;15592;53.656;7.276;2024-03-23T03:21:52;21.67;;;4.97;;
28335;SDS011;15592;53.656;7.276;2024-03-23T03:24:18;23.27;;;5.78;;
28335;SDS011;15592;53.656;7.276;2024-03-23T03:26:44;33.20;;;6.82;;
28335;SDS011;15592;53.656;7.276;2024-03-23T03:29:09;25.10;;;5.38;;
28335;SDS011;15592;53.656;7.276;2024-03-23T03:31:36;25.40;;;5.35;;
28335;SDS011;15592;53.656;7.276;2024-03-23T03:34:02;20.17;;;5.20;;
28335;SDS011;15592;53.656;7.276;2024-03-23T03:36:28;24.98;;;5.07;;
28335;SDS011;15592;53.656;7.276;2024-03-23T03:38:54;21.60;;;5.68;;
28335;SDS011;15592;53.656;7.276;2024-03-23T03:41:19;18.70;;;5.13;;
28335;SDS011;15592;53.656;7.276;2024-03-23T03:43:45;18.05;;;4.78;;
28335;SDS011;15592;53.656;7.276;2024-03-23T03:46:11;16.35;;;4.80;;
28335;SDS011;15592;53.656;7.276;2024-03-23T03:48:37;17.27;;;3.85;;
28335;SDS011;15592;53.656;7.276;2024-03-23T03:51:03;20.48;;;4.88;;
28335;SDS011;15592;53.656;7.276;2024-03-23T03:53:29;26.33;;;5.97;;
28335;SDS011;15592;53.656;7.276;2024-03-23T03:55:55;19.40;;;5.35;;
28335;SDS011;15592;53.656;7.276;2024-03-23T03:58:21;16.52;;;3.65;;
28335;SDS011;15592;53.656;7.276;2024-03-23T04:00:47;14.70;;;4.30;;
28335;SDS011;15592;53.656;7.276;2024-03-23T04:03:12;16.85;;;4.47;;
28335;SDS011;15592;53.656;7.276;2024-03-23T04:05:38;23.02;;;5.28;;
28335;SDS011;15592;53.656;7.276;2024-03-23T04:08:04;25.60;;;5.60;;
28335;SDS011;15592;53.656;7.276;2024-03-23T04:10:30;15.23;;;4.28;;
28335;SDS011;15592;53.656;7.276;2024-03-23T04:12:56;20.40;;;4.75;;
28335;SDS011;15592;53.656;7.276;2024-03-23T04:15:22;22.00;;;5.07;;
28335;SDS011;15592;53.656;7.276;2024-03-23T04:17:47;18.05;;;4.70;;
28335;SDS011;15592;53.656;7.276;2024-03-23T04:20:13;16.73;;;4.35;;
28335;SDS011;15592;53.656;7.276;2024-03-23T04:22:41;26.30;;;5.32;;
28335;SDS011;15592;53.656;7.276;2024-03-23T04:25:08;20.73;;;4.93;;
28335;SDS011;15592;53.656;7.276;2024-03-23T04:27:38;16.60;;;4.60;;
28335;SDS011;15592;53.656;7.276;2024-03-23T04:30:05;16.77;;;4.13;;
28335;SDS011;15592;53.656;7.276;2024-03-23T04:32:39;19.13;;;4.75;;
28335;SDS011;15592;53.656;7.276;2024-03-23T04:35:05;16.75;;;4.13;;
28335;SDS011;15592;53.656;7.276;2024-03-23T04:37:31;18.60;;;4.75;;
28335;SDS011;15592;53.656;7.276;2024-03-23T04:39:59;21.70;;;4.60;;
28335;SDS011;15592;53.656;7.276;2024-03-23T04:42:26;16.45;;;4.07;;
28335;SDS011;15592;53.656;7.276;2024-03-23T04:44:52;18.10;;;3.80;;
28335;SDS011;15592;53.656;7.276;2024-03-23T04:47:18;17.92;;;3.97;;
28335;SDS011;15592;53.656;7.276;2024-03-23T04:49:44;11.30;;;3.22;;
28335;SDS011;15592;53.656;7.276;2024-03-23T04:52:09;11.77;;;3.40;;
28335;SDS011;15592;53.656;7.276;2024-03-23T04:54:35;16.13;;;3.75;;
28335;SDS011;15592;53.656;7.276;2024-03-23T04:57:00;12.73;;;4.00;;
28335;SDS011;15592;53.656;7.276;2024-03-23T04:59:26;15.65;;;3.50;;
28335;SDS011;15592;53.656;7.276;2024-03-23T05:01:51;15.55;;;4.03;;
28335;SDS011;15592;53.656;7.276;2024-03-23T05:04:17;14.77;;;3.25;;
28335;SDS011;15592;53.656;7.276;2024-03-23T05:06:45;20.35;;;3.67;;
28335;SDS011;15592;53.656;7.276;2024-03-23T05:09:10;11.13;;;3.30;;
28335;SDS011;15592;53.656;7.276;2024-03-23T05:11:39;9.52;;;3.20;;
28335;SDS011;15592;53.656;7.276;2024-03-23T05:14:10;13.45;;;3.25;;
28335;SDS011;15592;53.656;7.276;2024-03-23T05:16:38;13.38;;;3.40;;
28335;SDS011;15592;53.656;7.276;2024-03-23T05:19:03;9.43;;;3.03;;
28335;SDS011;15592;53.656;7.276;2024-03-23T05:21:29;16.88;;;3.78;;
28335;SDS011;15592;53.656;7.276;2024-03-23T05:23:55;10.80;;;2.90;;
28335;SDS011;15592;53.656;7.276;2024-03-23T05:26:21;20.70;;;4.38;;
28335;SDS011;15592;53.656;7.276;2024-03-23T05:28:47;12.13;;;3.55;;
28335;SDS011;15592;53.656;7.276;2024-03-23T05:31:23;16.92;;;3.53;;
28335;SDS011;15592;53.656;7.276;2024-03-23T05:33:49;13.68;;;3.78;;
28335;SDS011;15592;53.656;7.276;2024-03-23T05:36:15;10.07;;;3.50;;
28335;SDS011;15592;53.656;7.276;2024-03-23T05:38:42;13.75;;;3.17;;
28335;SDS011;15592;53.656;7.276;2024-03-23T05:41:08;12.95;;;3.35;;
28335;SDS011;15592;53.656;7.276;2024-03-23T05:43:34;7.03;;;2.65;;
28335;SDS011;15592;53.656;7.276;2024-03-23T05:46:00;9.32;;;3.30;;
28335;SDS011;15592;53.656;7.276;2024-03-23T05:48:34;11.15;;;2.90;;
28335;SDS011;15592;53.656;7.276;2024-03-23T05:51:00;13.27;;;2.70;;
28335;SDS011;15592;53.656;7.276;2024-03-23T05:53:26;14.27;;;2.80;;
28335;SDS011;15592;53.656;7.276;2024-03-23T05:56:00;10.55;;;2.75;;
28335;SDS011;15592;53.656;7.276;2024-03-23T05:58:31;16.85;;;3.58;;
28335;SDS011;15592;53.656;7.276;2024-03-23T06:00:58;15.18;;;4.10;;
28335;SDS011;15592;53.656;7.276;2024-03-23T06:03:25;14.40;;;3.33;;
28335;SDS011;15592;53.656;7.276;2024-03-23T06:05:51;17.38;;;3.83;;
28335;SDS011;15592;53.656;7.276;2024-03-23T06:08:18;14.60;;;3.10;;
28335;SDS011;15592;53.656;7.276;2024-03-23T06:10:44;13.07;;;2.72;;
28335;SDS011;15592;53.656;7.276;2024-03-23T06:13:10;9.77;;;2.60;;
28335;SDS011;15592;53.656;7.276;2024-03-23T06:15:36;10.63;;;3.53;;
28335;SDS011;15592;53.656;7.276;2024-03-23T06:18:02;10.27;;;3.30;;
28335;SDS011;15592;53.656;7.276;2024-03-23T06:22:58;15.90;;;3.25;;
28335;SDS011;15592;53.656;7.276;2024-03-23T06:25:24;13.05;;;3.22;;
28335;SDS011;15592;53.656;7.276;2024-03-23T06:27:50;14.10;;;3.17;;
28335;SDS011;15592;53.656;7.276;2024-03-23T06:30:15;12.98;;;3.20;;
28335;SDS011;15592;53.656;7.276;2024-03-23T06:32:41;17.05;;;3.92;;
28335;SDS011;15592;53.656;7.276;2024-03-23T06:35:07;15.45;;;3.28;;
28335;SDS011;15592;53.656;7.276;2024-03-23T06:37:35;14.77;;;2.63;;
28335;SDS011;15592;53.656;7.276;2024-03-23T06:40:01;8.48;;;2.67;;
28335;SDS011;15592;53.656;7.276;2024-03-23T06:42:27;8.70;;;2.67;;
28335;SDS011;15592;53.656;7.276;2024-03-23T06:44:53;11.40;;;3.05;;
28335;SDS011;15592;53.656;7.276;2024-03-23T06:47:18;6.13;;;2.15;;
28335;SDS011;15592;53.656;7.276;2024-03-23T06:49:44;4.78;;;1.98;;
28335;SDS011;15592;53.656;7.276;2024-03-23T06:52:10;8.57;;;1.73;;
28335;SDS011;15592;53.656;7.276;2024-03-23T06:54:35;6.25;;;1.70;;
28335;SDS011;15592;53.656;7.276;2024-03-23T06:57:01;10.38;;;2.45;;
28335;SDS011;15592;53.656;7.276;2024-03-23T06:59:26;10.80;;;2.45;;
28335;SDS011;15592;53.656;7.276;2024-03-23T07:01:52;11.50;;;1.70;;
28335;SDS011;15592;53.656;7.276;2024-03-23T07:04:18;6.53;;;1.73;;
28335;SDS011;15592;53.656;7.276;2024-03-23T07:06:44;8.40;;;2.03;;
28335;SDS011;15592;53.656;7.276;2024-03-23T07:09:10;6.50;;;1.65;;
28335;SDS011;15592;53.656;7.276;2024-03-23T07:11:39;5.53;;;1.40;;
28335;SDS011;15592;53.656;7.276;2024-03-23T07:14:04;6.30;;;1.50;;
28335;SDS011;15592;53.656;7.276;2024-03-23T07:16:30;5.85;;;1.80;;
28335;SDS011;15592;53.656;7.276;2024-03-23T07:18:56;10.02;;;2.08;;
28335;SDS011;15592;53.656;7.276;2024-03-23T07:21:22;7.07;;;1.60;;
28335;SDS011;15592;53.656;7.276;2024-03-23T07:23:50;10.82;;;2.15;;
28335;SDS011;15592;53.656;7.276;2024-03-23T07:26:16;11.05;;;2.28;;
28335;SDS011;15592;53.656;7.276;2024-03-23T07:28:43;14.68;;;2.20;;
28335;SDS011;15592;53.656;7.276;2024-03-23T07:31:10;9.50;;;1.98;;
28335;SDS011;15592;53.656;7.276;2024-03-23T07:33:37;8.18;;;2.38;;
28335;SDS011;15592;53.656;7.276;2024-03-23T07:36:07;16.83;;;2.55;;
28335;SDS011;15592;53.656;7.276;2024-03-23T07:38:32;9.95;;;2.45;;
28335;SDS011;15592;53.656;7.276;2024-03-23T07:41:05;10.00;;;2.25;;
28335;SDS011;15592;53.656;7.276;2024-03-23T07:43:31;10.07;;;1.95;;
28335;SDS011;15592;53.656;7.276;2024-03-23T07:45:57;18.88;;;2.83;;
28335;SDS011;15592;53.656;7.276;2024-03-23T07:48:24;11.40;;;2.05;;
28335;SDS011;15592;53.656;7.276;2024-03-23T07:53:28;9.75;;;2.10;;
28335;SDS011;15592;53.656;7.276;2024-03-23T07:55:58;6.45;;;1.58;;
28335;SDS011;15592;53.656;7.276;2024-03-23T07:58:35;9.68;;;1.95;;
28335;SDS011;15592;53.656;7.276;2024-03-23T08:01:10;7.82;;;2.03;;
28335;SDS011;15592;53.656;7.276;2024-03-23T08:03:38;7.25;;;1.70;;
28335;SDS011;15592;53.656;7.276;2024-03-23T08:06:15;5.03;;;1.90;;
28335;SDS011;15592;53.656;7.276;2024-03-23T08:08:42;9.35;;;2.17;;
28335;SDS011;15592;53.656;7.276;2024-03-23T08:13:41;8.65;;;2.13;;
28335;SDS011;15592;53.656;7.276;2024-03-23T08:16:09;4.25;;;1.63;;
28335;SDS011;15592;53.656;7.276;2024-03-23T08:18:35;9.45;;;1.70;;
28335;SDS011;15592;53.656;7.276;2024-03-23T08:21:01;12.88;;;2.03;;
28335;SDS011;15592;53.656;7.276;2024-03-23T08:26:05;12.10;;;2.38;;
28335;SDS011;15592;53.656;7.276;2024-03-23T08:28:32;14.43;;;2.83;;
28335;SDS011;15592;53.656;7.276;2024-03-23T08:31:00;13.95;;;2.70;;
28335;SDS011;15592;53.656;7.276;2024-03-23T08:33:30;10.93;;;2.17;;
28335;SDS011;15592;53.656;7.276;2024-03-23T08:36:00;9.80;;;1.80;;
28335;SDS011;15592;53.656;7.276;2024-03-23T08:38:26;9.35;;;2.20;;
28335;SDS011;15592;53.656;7.276;2024-03-23T08:41:00;14.07;;;2.90;;
28335;SDS011;15592;53.656;7.276;2024-03-23T08:43:30;15.27;;;3.17;;
28335;SDS011;15592;53.656;7.276;2024-03-23T08:46:05;12.43;;;2.53;;
28335;SDS011;15592;53.656;7.276;2024-03-23T08:48:32;12.93;;;3.58;;
28335;SDS011;15592;53.656;7.276;2024-03-23T08:51:00;13.57;;;2.70;;
28335;SDS011;15592;53.656;7.276;2024-03-23T08:53:32;13.10;;;2.70;;
28335;SDS011;15592;53.656;7.276;2024-03-23T08:56:08;14.55;;;2.72;;
28335;SDS011;15592;53.656;7.276;2024-03-23T08:58:35;12.07;;;3.38;;
28335;SDS011;15592;53.656;7.276;2024-03-23T09:01:05;14.65;;;3.40;;
28335;SDS011;15592;53.656;7.276;2024-03-23T09:03:32;11.90;;;3.17;;
28335;SDS011;15592;53.656;7.276;2024-03-23T09:05:59;9.90;;;2.45;;
28335;SDS011;15592;53.656;7.276;2024-03-23T09:08:25;10.52;;;2.40;;
28335;SDS011;15592;53.656;7.276;2024-03-23T09:10:51;12.35;;;2.05;;
28335;SDS011;15592;53.656;7.276;2024-03-23T09:13:17;8.40;;;1.95;;
28335;SDS011;15592;53.656;7.276;2024-03-23T09:15:49;10.02;;;2.03;;
28335;SDS011;15592;53.656;7.276;2024-03-23T09:18:16;8.57;;;2.10;;
28335;SDS011;15592;53.656;7.276;2024-03-23T09:20:42;11.27;;;2.58;;
28335;SDS011;15592;53.656;7.276;2024-03-23T09:23:08;12.40;;;2.53;;
28335;SDS011;15592;53.656;7.276;2024-03-23T09:25:40;17.45;;;3.53;;
28335;SDS011;15592;53.656;7.276;2024-03-23T09:28:06;13.85;;;3.30;;
28335;SDS011;15592;53.656;7.276;2024-03-23T09:30:33;18.02;;;3.17;;
28335;SDS011;15592;53.656;7.276;2024-03-23T09:33:00;15.52;;;3.03;;
28335;SDS011;15592;53.656;7.276;2024-03-23T09:35:26;13.85;;;3.08;;
28335;SDS011;15592;53.656;7.276;2024-03-23T09:37:51;16.08;;;2.58;;
28335;SDS011;15592;53.656;7.276;2024-03-23T09:40:17;13.23;;;2.88;;
28335;SDS011;15592;53.656;7.276;2024-03-23T09:42:43;8.07;;;2.25;;
28335;SDS011;15592;53.656;7.276;2024-03-23T09:45:21;14.50;;;3.10;;
28335;SDS011;15592;53.656;7.276;2024-03-23T09:47:52;16.88;;;3.08;;
28335;SDS011;15592;53.656;7.276;2024-03-23T09:50:18;15.60;;;3.13;;
28335;SDS011;15592;53.656;7.276;2024-03-23T09:52:45;16.25;;;3.17;;
28335;SDS011;15592;53.656;7.276;2024-03-23T09:55:11;15.70;;;3.05;;
28335;SDS011;15592;53.656;7.276;2024-03-23T09:57:37;12.65;;;3.13;;
28335;SDS011;15592;53.656;7.276;2024-03-23T10:00:03;15.20;;;3.60;;
28335;SDS011;15592;53.656;7.276;2024-03-23T10:02:29;14.20;;;3.13;;
28335;SDS011;15592;53.656;7.276;2024-03-23T10:04:55;15.85;;;2.97;;
28335;SDS011;15592;53.656;7.276;2024-03-23T10:07:22;12.07;;;2.53;;
28335;SDS011;15592;53.656;7.276;2024-03-23T10:09:49;9.45;;;2.22;;
28335;SDS011;15592;53.656;7.276;2024-03-23T10:12:18;13.75;;;2.95;;
28335;SDS011;15592;53.656;7.276;2024-03-23T10:14:44;9.18;;;2.13;;
28335;SDS011;15592;53.656;7.276;2024-03-23T10:17:14;9.23;;;2.05;;
28335;SDS011;15592;53.656;7.276;2024-03-23T10:19:46;8.73;;;2.67;;
28335;SDS011;15592;53.656;7.276;2024-03-23T10:22:16;17.17;;;3.53;;
28335;SDS011;15592;53.656;7.276;2024-03-23T10:24:46;13.93;;;2.60;;
28335;SDS011;15592;53.656;7.276;2024-03-23T10:27:16;9.73;;;1.95;;
28335;SDS011;15592;53.656;7.276;2024-03-23T10:29:44;12.77;;;2.40;;
28335;SDS011;15592;53.656;7.276;2024-03-23T10:32:10;9.00;;;2.22;;
28335;SDS011;15592;53.656;7.276;2024-03-23T10:34:37;10.82;;;2.55;;
28335;SDS011;15592;53.656;7.276;2024-03-23T10:37:03;9.38;;;2.58;;
28335;SDS011;15592;53.656;7.276;2024-03-23T10:39:33;8.23;;;2.50;;
28335;SDS011;15592;53.656;7.276;2024-03-23T10:42:01;7.20;;;2.00;;
28335;SDS011;15592;53.656;7.276;2024-03-23T10:44:32;8.02;;;1.90;;
28335;SDS011;15592;53.656;7.276;2024-03-23T10:46:58;15.27;;;3.00;;
28335;SDS011;15592;53.656;7.276;2024-03-23T10:49:29;12.48;;;2.70;;
28335;SDS011;15592;53.656;7.276;2024-03-23T10:51:57;12.60;;;2.75;;
28335;SDS011;15592;53.656;7.276;2024-03-23T10:54:24;9.82;;;2.63;;
28335;SDS011;15592;53.656;7.276;2024-03-23T10:56:51;13.63;;;3.22;;
28335;SDS011;15592;53.656;7.276;2024-03-23T10:59:22;10.90;;;2.67;;
28335;SDS011;15592;53.656;7.276;2024-03-23T11:01:59;10.15;;;2.47;;
28335;SDS011;15592;53.656;7.276;2024-03-23T11:07:00;11.63;;;2.75;;
28335;SDS011;15592;53.656;7.276;2024-03-23T11:09:45;11.32;;;2.80;;
28335;SDS011;15592;53.656;7.276;2024-03-23T11:15:04;9.35;;;2.38;;
28335;SDS011;15592;53.656;7.276;2024-03-23T11:17:31;9.85;;;2.33;;
28335;SDS011;15592;53.656;7.276;2024-03-23T11:19:58;7.53;;;1.88;;
28335;SDS011;15592;53.656;7.276;2024-03-23T11:25:17;6.30;;;1.90;;
28335;SDS011;15592;53.656;7.276;2024-03-23T11:27:46;4.78;;;1.50;;
28335;SDS011;15592;53.656;7.276;2024-03-23T11:30:16;6.18;;;1.65;;
28335;SDS011;15592;53.656;7.276;2024-03-23T11:32:44;4.05;;;1.23;;
28335;SDS011;15592;53.656;7.276;2024-03-23T11:35:10;6.65;;;1.65;;
28335;SDS011;15592;53.656;7.276;2024-03-23T11:38:04;6.35;;;1.60;;
28335;SDS011;15592;53.656;7.276;2024-03-23T11:40:30;11.10;;;2.38;;
28335;SDS011;15592;53.656;7.276;2024-03-23T11:43:00;4.90;;;1.92;;
28335;SDS011;15592;53.656;7.276;2024-03-23T11:45:27;9.40;;;2.15;;
28335;SDS011;15592;53.656;7.276;2024-03-23T11:48:04;5.43;;;2.20;;
28335;SDS011;15592;53.656;7.276;2024-03-23T11:50:30;6.93;;;2.03;;
28335;SDS011;15592;53.656;7.276;2024-03-23T11:53:06;7.10;;;1.88;;
28335;SDS011;15592;53.656;7.276;2024-03-23T11:55:49;4.25;;;1.55;;
28335;SDS011;15592;53.656;7.276;2024-03-23T11:58:19;5.32;;;1.75;;
28335;SDS011;15592;53.656;7.276;2024-03-23T12:03:24;5.25;;;1.50;;
28335;SDS011;15592;53.656;7.276;2024-03-23T12:05:52;8.13;;;1.83;;
28335;SDS011;15592;53.656;7.276;2024-03-23T12:08:19;11.18;;;1.58;;
28335;SDS011;15592;53.656;7.276;2024-03-23T12:10:48;8.00;;;1.88;;
28335;SDS011;15592;53.656;7.276;2024-03-23T12:13:16;8.23;;;2.28;;
28335;SDS011;15592;53.656;7.276;2024-03-23T12:15:46;12.07;;;2.05;;
28335;SDS011;15592;53.656;7.276;2024-03-23T12:18:12;12.40;;;2.45;;
28335;SDS011;15592;53.656;7.276;2024-03-23T12:20:38;3.58;;;1.45;;
28335;SDS011;15592;53.656;7.276;2024-03-23T12:23:11;10.25;;;1.77;;
28335;SDS011;15592;53.656;7.276;2024-03-23T12:25:38;12.18;;;2.72;;
28335;SDS011;15592;53.656;7.276;2024-03-23T12:28:04;9.98;;;2.50;;
28335;SDS011;15592;53.656;7.276;2024-03-23T12:30:31;9.00;;;2.30;;
28335;SDS011;15592;53.656;7.276;2024-03-23T12:35:27;14.23;;;2.95;;
28335;SDS011;15592;53.656;7.276;2024-03-23T12:37:52;19.75;;;3.33;;
28335;SDS011;15592;53.656;7.276;2024-03-23T12:40:18;9.73;;;2.35;;
28335;SDS011;15592;53.656;7.276;2024-03-23T12:42:43;8.18;;;2.42;;
28335;SDS011;15592;53.656;7.276;2024-03-23T12:45:09;8.80;;;2.70;;
28335;SDS011;15592;53.656;7.276;2024-03-23T12:47:35;10.73;;;2.50;;
28335;SDS011;15592;53.656;7.276;2024-03-23T12:50:01;9.60;;;2.50;;
28335;SDS011;15592;53.656;7.276;2024-03-23T12:52:26;14.40;;;2.55;;
28335;SDS011;15592;53.656;7.276;2024-03-23T12:54:55;8.50;;;2.17;;
28335;SDS011;15592;53.656;7.276;2024-03-23T12:57:25;9.13;;;2.35;;
28335;SDS011;15592;53.656;7.276;2024-03-23T12:59:51;9.73;;;2.50;;
28335;SDS011;15592;53.656;7.276;2024-03-23T13:02:20;12.88;;;2.95;;
28335;SDS011;15592;53.656;7.276;2024-03-23T13:04:48;11.45;;;2.78;;
28335;SDS011;15592;53.656;7.276;2024-03-23T13:07:15;11.90;;;2.83;;
28335;SDS011;15592;53.656;7.276;2024-03-23T13:09:41;17.17;;;3.13;;
28335;SDS011;15592;53.656;7.276;2024-03-23T13:12:07;9.10;;;2.28;;
28335;SDS011;15592;53.656;7.276;2024-03-23T13:14:33;12.75;;;2.60;;
28335;SDS011;15592;53.656;7.276;2024-03-23T13:16:58;4.25;;;1.77;;
28335;SDS011;15592;53.656;7.276;2024-03-23T13:19:24;5.80;;;1.80;;
28335;SDS011;15592;53.656;7.276;2024-03-23T13:21:53;7.35;;;1.77;;
28335;SDS011;15592;53.656;7.276;2024-03-23T13:24:23;5.72;;;1.80;;
28335;SDS011;15592;53.656;7.276;2024-03-23T13:26:49;16.15;;;3.10;;
28335;SDS011;15592;53.656;7.276;2024-03-23T13:29:16;13.02;;;3.22;;
28335;SDS011;15592;53.656;7.276;2024-03-23T13:31:45;17.67;;;2.88;;
28335;SDS011;15592;53.656;7.276;2024-03-23T13:34:12;16.40;;;3.00;;
28335;SDS011;15592;53.656;7.276;2024-03-23T13:36:40;18.50;;;3.53;;
28335;SDS011;15592;53.656;7.276;2024-03-23T13:39:06;12.98;;;3.10;;
28335;SDS011;15592;53.656;7.276;2024-03-23T13:41:36;7.67;;;2.50;;
28335;SDS011;15592;53.656;7.276;2024-03-23T13:44:06;6.07;;;1.98;;
28335;SDS011;15592;53.656;7.276;2024-03-23T13:46:41;8.95;;;1.85;;
28335;SDS011;15592;53.656;7.276;2024-03-23T13:49:14;6.63;;;2.17;;
28335;SDS011;15592;53.656;7.276;2024-03-23T13:51:49;3.40;;;1.52;;
28335;SDS011;15592;53.656;7.276;2024-03-23T13:54:15;4.72;;;1.70;;
28335;SDS011;15592;53.656;7.276;2024-03-23T13:56:40;7.47;;;2.30;;
28335;SDS011;15592;53.656;7.276;2024-03-23T13:59:06;7.72;;;2.10;;
28335;SDS011;15592;53.656;7.276;2024-03-23T14:01:32;7.18;;;2.10;;
28335;SDS011;15592;53.656;7.276;2024-03-23T14:03:57;11.30;;;2.70;;
28335;SDS011;15592;53.656;7.276;2024-03-23T14:06:23;13.80;;;3.30;;
28335;SDS011;15592;53.656;7.276;2024-03-23T14:08:49;18.73;;;3.75;;
28335;SDS011;15592;53.656;7.276;2024-03-23T14:11:14;12.15;;;3.10;;
28335;SDS011;15592;53.656;7.276;2024-03-23T14:13:40;13.85;;;3.03;;
28335;SDS011;15592;53.656;7.276;2024-03-23T14:16:06;20.48;;;3.55;;
28335;SDS011;15592;53.656;7.276;2024-03-23T14:18:31;12.10;;;2.70;;
28335;SDS011;15592;53.656;7.276;2024-03-23T14:21:00;12.15;;;2.75;;
28335;SDS011;15592;53.656;7.276;2024-03-23T14:23:26;14.18;;;3.30;;
28335;SDS011;15592;53.656;7.276;2024-03-23T14:25:54;10.38;;;2.30;;
28335;SDS011;15592;53.656;7.276;2024-03-23T14:28:23;5.75;;;2.13;;
28335;SDS011;15592;53.656;7.276;2024-03-23T14:30:49;7.35;;;2.08;;
28335;SDS011;15592;53.656;7.276;2024-03-23T14:33:15;6.68;;;2.17;;
28335;SDS011;15592;53.656;7.276;2024-03-23T14:35:41;12.02;;;2.55;;
28335;SDS011;15592;53.656;7.276;2024-03-23T14:38:07;20.13;;;3.30;;
28335;SDS011;15592;53.656;7.276;2024-03-23T14:40:33;18.05;;;4.28;;
28335;SDS011;15592;53.656;7.276;2024-03-23T14:42:59;15.02;;;3.42;;
28335;SDS011;15592;53.656;7.276;2024-03-23T14:45:24;17.17;;;3.42;;
28335;SDS011;15592;53.656;7.276;2024-03-23T14:47:50;11.57;;;2.63;;
28335;SDS011;15592;53.656;7.276;2024-03-23T14:50:16;11.13;;;3.22;;
28335;SDS011;15592;53.656;7.276;2024-03-23T14:52:45;11.80;;;3.15;;
28335;SDS011;15592;53.656;7.276;2024-03-23T14:55:11;13.00;;;2.80;;
28335;SDS011;15592;53.656;7.276;2024-03-23T14:57:38;6.65;;;1.98;;
28335;SDS011;15592;53.656;7.276;2024-03-23T15:00:09;12.70;;;2.45;;
28335;SDS011;15592;53.656;7.276;2024-03-23T15:02:39;15.43;;;2.97;;
28335;SDS011;15592;53.656;7.276;2024-03-23T15:05:05;11.02;;;2.47;;
28335;SDS011;15592;53.656;7.276;2024-03-23T15:07:33;12.95;;;3.20;;
28335;SDS011;15592;53.656;7.276;2024-03-23T15:09:58;12.90;;;2.70;;
28335;SDS011;15592;53.656;7.276;2024-03-23T15:12:24;10.15;;;2.95;;
28335;SDS011;15592;53.656;7.276;2024-03-23T15:14:50;12.07;;;3.28;;
28335;SDS011;15592;53.656;7.276;2024-03-23T15:17:15;11.05;;;3.45;;
28335;SDS011;15592;53.656;7.276;2024-03-23T15:19:41;11.82;;;3.00;;
28335;SDS011;15592;53.656;7.276;2024-03-23T15:22:07;9.07;;;2.08;;
28335;SDS011;15592;53.656;7.276;2024-03-23T15:24:35;11.35;;;2.60;;
28335;SDS011;15592;53.656;7.276;2024-03-23T15:27:02;6.55;;;1.92;;
28335;SDS011;15592;53.656;7.276;2024-03-23T15:29:28;13.27;;;2.65;;
28335;SDS011;15592;53.656;7.276;2024-03-23T15:31:54;8.93;;;2.38;;
28335;SDS011;15592;53.656;7.276;2024-03-23T15:34:20;19.23;;;3.42;;
28335;SDS011;15592;53.656;7.276;2024-03-23T15:36:51;13.05;;;2.75;;
28335;SDS011;15592;53.656;7.276;2024-03-23T15:39:17;10.10;;;2.75;;
28335;SDS011;15592;53.656;7.276;2024-03-23T15:41:44;17.17;;;3.58;;
28335;SDS011;15592;53.656;7.276;2024-03-23T15:44:12;14.60;;;3.57;;
28335;SDS011;15592;53.656;7.276;2024-03-23T15:46:38;18.92;;;2.88;;
28335;SDS011;15592;53.656;7.276;2024-03-23T15:49:04;10.48;;;2.90;;
28335;SDS011;15592;53.656;7.276;2024-03-23T15:51:31;13.43;;;3.03;;
28335;SDS011;15592;53.656;7.276;2024-03-23T15:53:59;6.57;;;2.22;;